Time;durP1;ratioP1;P1;durP2;ratioP2;P2;SDS_P1;SDS_P2;PMS_P1;PMS_P2;Temp;Humidity;BMP_temperature;BMP_pressure;BME280_temperature;BME280_humidity;BME280_pressure;Samples;Min_cycle;Max_cycle;Signal;HPM_P1;HPM_P2
2022/11/20 00:01:29;;;;;;;10.82;5.82;;;-1.80;99.90;;;;;;5053021;28;20041;-70
2022/11/20 00:03:57;;;;;;;7.90;5.40;;;-1.90;99.90;;;;;;5053046;28;20045;-70
2022/11/20 00:06:23;;;;;;;11.25;5.72;;;-1.20;99.90;;;;;;5035449;28;20110;-70
2022/11/20 00:08:51;;;;;;;10.02;5.63;;;-1.80;99.90;;;;;;5052986;28;20048;-70
2022/11/20 00:11:22;;;;;;;8.20;5.20;;;-1.70;99.90;;;;;;5053014;28;20496;-70
2022/11/20 00:13:50;;;;;;;9.15;5.65;;;-1.10;99.90;;;;;;5052980;28;20045;-70
2022/11/20 00:16:19;;;;;;;9.20;6.03;;;-1.60;99.90;;;;;;5052931;28;20076;-70
2022/11/20 00:18:45;;;;;;;10.43;6.75;;;-1.60;99.90;;;;;;5053606;28;20128;-70
2022/11/20 00:21:14;;;;;;;11.20;6.68;;;-1.50;99.90;;;;;;5053214;28;20508;-70
2022/11/20 00:23:41;;;;;;;11.82;6.72;;;-1.50;99.90;;;;;;5052910;28;20084;-70
2022/11/20 00:26:10;;;;;;;8.93;6.13;;;-0.10;99.90;;;;;;5052978;28;20041;-70
2022/11/20 00:28:35;;;;;;;9.95;6.47;;;-1.30;99.90;;;;;;5053304;28;20442;-70
2022/11/20 00:31:10;;;;;;;9.38;6.55;;;-1.30;99.90;;;;;;5035930;28;20095;-70
2022/11/20 00:33:36;;;;;;;11.70;6.80;;;-1.20;99.90;;;;;;5056617;28;20052;-70
2022/11/20 00:36:07;;;;;;;10.98;6.72;;;-1.20;99.90;;;;;;5056791;28;20048;-70
2022/11/20 00:38:33;;;;;;;10.15;6.28;;;-1.20;99.90;;;;;;5056783;28;20045;-70
2022/11/20 00:41:01;;;;;;;8.95;6.00;;;-0.10;99.90;;;;;;5056757;28;20040;-70
2022/11/20 00:43:27;;;;;;;10.90;6.22;;;-1.10;99.90;;;;;;5056751;28;20056;-70
2022/11/20 00:46:10;;;;;;;8.98;6.35;;;0.10;99.90;;;;;;5057167;28;20136;-70
2022/11/20 00:48:35;;;;;;;8.13;6.10;;;-1.10;99.90;;;;;;5056668;28;20041;-70
2022/11/20 00:51:01;;;;;;;9.02;6.07;;;-1.20;99.90;;;;;;5056519;28;20044;-70
2022/11/20 00:53:27;;;;;;;10.60;7.25;;;0.60;99.90;;;;;;5056548;28;20057;-70
2022/11/20 00:56:05;;;;;;;8.90;5.68;;;-1.20;99.90;;;;;;5057054;28;20052;-70
2022/11/20 00:58:34;;;;;;;9.63;5.95;;;-1.10;99.90;;;;;;5056700;28;20127;-70
2022/11/20 01:01:01;;;;;;;12.05;6.75;;;-0.70;99.90;;;;;;5056392;28;20037;-70
2022/11/20 01:03:30;;;;;;;10.02;6.85;;;-1.00;99.90;;;;;;5039043;28;20045;-70
2022/11/20 01:06:01;;;;;;;8.82;6.28;;;-1.00;99.90;;;;;;5056826;28;20055;-70
2022/11/20 01:08:30;;;;;;;10.93;6.57;;;-0.40;99.90;;;;;;5056353;28;20045;-70
2022/11/20 01:11:00;;;;;;;9.55;6.22;;;-0.80;99.90;;;;;;5056712;28;20053;-70
2022/11/20 01:13:38;;;;;;;11.02;7.03;;;1.10;99.90;;;;;;5038296;28;20045;-70
2022/11/20 01:16:07;;;;;;;9.05;6.18;;;-0.80;99.90;;;;;;5056060;28;20045;-70
2022/11/20 01:18:35;;;;;;;9.07;5.88;;;-0.80;99.90;;;;;;5055615;28;20040;-70
2022/11/20 01:21:03;;;;;;;9.43;6.50;;;0.70;99.90;;;;;;5056076;28;20118;-70
2022/11/20 01:23:34;;;;;;;8.88;5.75;;;-0.50;99.90;;;;;;5055664;28;20485;-70
2022/11/20 01:26:02;;;;;;;7.75;5.50;;;-0.70;99.90;;;;;;5055954;28;20037;-70
2022/11/20 01:28:29;;;;;;;10.55;6.20;;;-0.10;99.90;;;;;;5055890;28;20061;-70
2022/11/20 01:30:54;;;;;;;10.00;6.18;;;-0.20;99.90;;;;;;5055827;28;20080;-70
2022/11/20 01:33:20;;;;;;;9.95;5.75;;;-0.70;99.90;;;;;;5055735;28;20092;-70
2022/11/20 01:35:46;;;;;;;9.77;6.30;;;-0.70;99.90;;;;;;5055720;28;20052;-70
2022/11/20 01:38:11;;;;;;;9.40;5.90;;;-0.70;99.90;;;;;;5037853;28;20044;-70
2022/11/20 01:40:37;;;;;;;10.90;6.70;;;-0.70;99.90;;;;;;5055587;28;20053;-70
2022/11/20 01:43:21;;;;;;;10.20;6.30;;;-0.80;99.90;;;;;;5055600;28;20382;-70
2022/11/20 01:46:03;;;;;;;9.27;6.40;;;-0.90;99.90;;;;;;5056239;28;20118;-69
2022/11/20 01:48:38;;;;;;;10.82;7.45;;;-1.00;99.90;;;;;;5055500;28;20151;-70
2022/11/20 01:51:10;;;;;;;10.20;6.97;;;-1.00;99.90;;;;;;5055523;28;20481;-70
2022/11/20 01:53:37;;;;;;;9.30;6.30;;;-1.00;99.90;;;;;;5055498;28;20130;-70
2022/11/20 01:56:05;;;;;;;9.38;6.30;;;-1.00;99.90;;;;;;5055394;28;20557;-70
2022/11/20 01:58:35;;;;;;;9.70;6.80;;;-1.00;99.90;;;;;;5055257;28;20053;-70
2022/11/20 02:01:01;;;;;;;9.57;6.40;;;-0.70;99.90;;;;;;5055300;28;20045;-70
2022/11/20 02:03:27;;;;;;;9.40;6.47;;;-0.80;99.90;;;;;;5055672;28;20051;-70
2022/11/20 02:06:10;;;;;;;9.30;6.50;;;0.10;99.90;;;;;;5055699;28;20049;-70
2022/11/20 02:08:37;;;;;;;10.65;6.55;;;-0.80;99.90;;;;;;5055171;28;20131;-71
2022/11/20 02:11:03;;;;;;;10.02;6.47;;;-0.30;99.90;;;;;;5055826;28;20084;-70
2022/11/20 02:13:43;;;;;;;10.02;6.68;;;-0.90;99.90;;;;;;5037241;28;20052;-70
2022/11/20 02:16:22;;;;;;;9.65;6.32;;;0.10;99.90;;;;;;5055671;28;20044;-70
2022/11/20 02:18:49;;;;;;;9.43;6.32;;;-0.80;99.90;;;;;;5054910;28;20504;-70
2022/11/20 02:21:46;;;;;;;8.98;6.13;;;0.00;99.90;;;;;;5055081;28;20064;-70
2022/11/20 02:24:15;;;;;;;;;;;-0.70;99.90;;;;;;5055297;28;20056;-70
2022/11/20 02:26:57;;;;;;;8.55;5.95;;;-0.80;99.90;;;;;;5037055;28;19921;-70
2022/11/20 02:29:37;;;;;;;8.60;6.18;;;-0.90;99.90;;;;;;5055032;28;20071;-70
2022/11/20 02:32:03;;;;;;;10.93;6.72;;;-0.90;99.90;;;;;;5054675;28;20055;-70
2022/11/20 02:34:29;;;;;;;8.93;6.30;;;-0.90;99.90;;;;;;5055082;28;20041;-70
2022/11/20 02:36:56;;;;;;;8.45;5.78;;;0.30;99.90;;;;;;5036439;28;20048;-70
2022/11/20 02:39:24;;;;;;;8.02;5.72;;;-0.90;99.90;;;;;;5055054;28;20091;-70
2022/11/20 02:41:53;;;;;;;9.38;6.15;;;-0.90;99.90;;;;;;5036877;28;20099;-70
2022/11/20 02:44:20;;;;;;;9.02;6.03;;;-0.90;99.90;;;;;;5054456;28;20064;-70
2022/11/20 02:46:46;;;;;;;8.85;6.28;;;-0.90;99.90;;;;;;5054275;28;20056;-70
2022/11/20 02:49:12;;;;;;;9.13;5.93;;;-0.90;99.90;;;;;;5054331;28;20047;-70
2022/11/20 02:51:37;;;;;;;9.20;6.25;;;-0.50;99.90;;;;;;5053952;28;20049;-70
2022/11/20 02:54:03;;;;;;;8.88;5.50;;;0.70;99.90;;;;;;5054301;28;20075;-70
2022/11/20 02:56:29;;;;;;;8.55;5.82;;;-0.80;99.90;;;;;;5053587;28;20084;-70
2022/11/20 02:58:55;;;;;;;8.88;5.95;;;-0.70;99.90;;;;;;5036635;28;20048;-70
2022/11/20 03:01:21;;;;;;;8.55;6.03;;;-0.50;99.90;;;;;;5054133;28;20096;-70
2022/11/20 03:03:48;;;;;;;10.13;6.38;;;-0.70;99.90;;;;;;5054032;28;20084;-69
2022/11/20 03:06:15;;;;;;;8.88;5.90;;;-0.70;99.90;;;;;;5036446;28;20056;-70
2022/11/20 03:08:41;;;;;;;9.02;5.95;;;-0.70;99.90;;;;;;5053999;28;20069;-70
2022/11/20 03:11:07;;;;;;;10.90;6.38;;;-0.60;99.90;;;;;;5036157;28;20110;-70
2022/11/20 03:13:33;;;;;;;9.00;6.20;;;0.60;99.90;;;;;;5053873;28;20049;-70
2022/11/20 03:16:23;;;;;;;8.25;5.93;;;1.00;99.90;;;;;;5054114;28;20507;-70
2022/11/20 03:18:49;;;;;;;10.73;5.68;;;-0.60;99.90;;;;;;5053372;28;20482;-70
2022/11/20 03:21:16;;;;;;;10.00;6.10;;;-0.60;99.90;;;;;;5054571;28;20063;-69
2022/11/20 03:23:41;;;;;;;9.23;5.85;;;-0.70;99.90;;;;;;5054200;28;20473;-70
2022/11/20 03:26:16;;;;;;;9.63;6.25;;;-0.80;99.90;;;;;;5035907;28;20060;-70
2022/11/20 03:28:47;;;;;;;8.95;5.93;;;-0.80;99.90;;;;;;5036021;28;20540;-70
2022/11/20 03:31:15;;;;;;;8.02;5.50;;;-0.90;99.90;;;;;;5054058;28;20048;-70
2022/11/20 03:33:42;;;;;;;8.63;5.20;;;0.70;99.90;;;;;;5054081;28;20048;-70
2022/11/20 03:36:10;;;;;;;10.52;5.88;;;-0.20;99.90;;;;;;5053723;28;20084;-70
2022/11/20 03:38:36;;;;;;;9.68;6.28;;;-0.80;99.90;;;;;;5053749;28;20080;-70
2022/11/20 03:41:05;;;;;;;8.70;5.43;;;-0.70;99.90;;;;;;5053461;28;20049;-70
2022/11/20 03:43:31;;;;;;;8.32;5.63;;;-0.70;99.90;;;;;;5053914;28;20052;-70
2022/11/20 03:45:57;;;;;;;8.98;5.95;;;-0.70;99.90;;;;;;5053227;28;20174;-69
2022/11/20 03:48:23;;;;;;;8.90;5.40;;;-0.70;99.90;;;;;;5035822;28;20061;-70
2022/11/20 03:50:49;;;;;;;8.90;5.80;;;-0.70;99.90;;;;;;5035560;28;20091;-70
2022/11/20 03:53:16;;;;;;;9.15;5.13;;;0.60;99.90;;;;;;5053318;28;20044;-70
2022/11/20 03:55:42;;;;;;;9.63;6.22;;;-0.60;99.90;;;;;;5053180;28;20048;-70
2022/11/20 03:58:08;;;;;;;8.27;5.50;;;-0.60;99.90;;;;;;5053036;28;20053;-70
2022/11/20 04:00:33;;;;;;;9.13;5.53;;;-0.60;99.90;;;;;;5053101;28;20057;-70
2022/11/20 04:03:00;;;;;;;8.77;5.80;;;-0.50;99.90;;;;;;5052764;28;20052;-70
2022/11/20 04:05:26;;;;;;;9.80;5.57;;;0.40;99.90;;;;;;5053121;28;20052;-70
2022/11/20 04:07:51;;;;;;;8.38;5.63;;;-0.50;99.90;;;;;;5053283;28;20036;-70
2022/11/20 04:10:17;;;;;;;7.22;4.95;;;0.40;99.90;;;;;;5053102;28;20083;-70
2022/11/20 04:12:43;;;;;;;9.00;5.25;;;-0.50;99.90;;;;;;5053025;28;20045;-70
2022/11/20 04:15:09;;;;;;;8.60;5.32;;;-0.50;99.90;;;;;;5053118;28;20045;-70
2022/11/20 04:17:35;;;;;;;9.55;5.55;;;-0.50;99.90;;;;;;5052857;28;20040;-70
2022/11/20 04:20:01;;;;;;;9.60;5.90;;;-0.40;99.90;;;;;;5052672;28;20053;-70
2022/11/20 04:22:27;;;;;;;8.98;5.72;;;-0.40;99.90;;;;;;5053511;28;20044;-70
2022/11/20 04:24:52;;;;;;;9.40;5.65;;;1.10;99.90;;;;;;5052977;28;20123;-70
2022/11/20 04:27:18;;;;;;;8.23;5.20;;;-0.40;99.90;;;;;;5052922;28;20367;-70
2022/11/20 04:29:44;;;;;;;8.38;5.40;;;-0.40;99.90;;;;;;5034750;28;20120;-70
2022/11/20 04:32:09;;;;;;;9.00;4.80;;;-0.40;99.90;;;;;;5052648;28;20049;-70
2022/11/20 04:34:35;;;;;;;10.32;5.97;;;1.00;99.90;;;;;;5052596;28;20446;-70
2022/11/20 04:37:01;;;;;;;9.07;5.80;;;-0.40;99.90;;;;;;5035167;28;20052;-70
2022/11/20 04:39:27;;;;;;;8.02;5.18;;;-0.30;99.90;;;;;;5052755;28;20465;-70
2022/11/20 04:42:28;;;;;;;8.00;5.47;;;0.80;99.90;;;;;;5035242;28;20375;-70
2022/11/20 04:44:38;;;;;;;7.00;5.22;;;-0.30;99.90;;;;;;5052924;28;20051;-70
2022/11/20 04:47:04;;;;;;;7.32;4.90;;;-0.30;99.90;;;;;;5053420;28;20045;-70
2022/11/20 04:49:31;;;;;;;9.43;5.57;;;-0.40;99.90;;;;;;5052699;28;20045;-70
2022/11/20 04:51:57;;;;;;;7.70;5.45;;;0.20;99.90;;;;;;5035896;28;20057;-70
2022/11/20 04:54:23;;;;;;;8.73;5.43;;;0.70;99.90;;;;;;5052645;28;20084;-70
2022/11/20 04:56:49;;;;;;;7.15;4.63;;;-0.50;99.90;;;;;;5034841;28;20104;-70
2022/11/20 04:59:14;;;;;;;8.65;5.43;;;-0.60;99.90;;;;;;5052647;28;20055;-70
2022/11/20 05:01:40;;;;;;;8.73;6.38;;;1.00;99.90;;;;;;5053332;28;20041;-69
2022/11/20 05:04:06;;;;;;;10.13;5.88;;;-0.60;99.90;;;;;;5052600;28;20045;-70
2022/11/20 05:06:32;;;;;;;10.05;6.32;;;-0.60;99.90;;;;;;5053118;28;20049;-69
2022/11/20 05:08:58;;;;;;;8.63;5.45;;;-0.60;99.90;;;;;;5052484;28;20045;-70
2022/11/20 05:11:24;;;;;;;8.52;5.63;;;-0.50;99.90;;;;;;5035225;28;20084;-69
2022/11/20 05:13:51;;;;;;;8.00;5.53;;;-0.70;99.90;;;;;;5053182;28;20049;-70
2022/11/20 05:16:19;;;;;;;8.18;5.53;;;-0.70;99.90;;;;;;5052376;28;20501;-70
2022/11/20 05:18:45;;;;;;;8.88;6.13;;;-0.60;99.90;;;;;;5053394;28;20080;-70
2022/11/20 05:21:12;;;;;;;7.53;5.35;;;-0.60;99.90;;;;;;5056240;28;20056;-70
2022/11/20 05:23:38;;;;;;;7.85;5.53;;;-1.90;99.90;;;;;;5056762;28;20075;-69
2022/11/20 05:26:05;;;;;;;8.63;5.57;;;-0.60;99.90;;;;;;5056485;28;20060;-70
2022/11/20 05:28:32;;;;;;;9.32;6.22;;;0.90;99.90;;;;;;5055858;28;20131;-70
2022/11/20 05:31:05;;;;;;;10.40;5.90;;;-0.50;99.90;;;;;;5056314;28;20437;-70
2022/11/20 05:33:32;;;;;;;9.65;6.05;;;-0.40;99.90;;;;;;5055822;28;20048;-69
2022/11/20 05:36:04;;;;;;;10.20;5.80;;;0.70;99.90;;;;;;5038204;28;20385;-69
2022/11/20 05:38:29;;;;;;;8.55;5.22;;;-0.30;99.90;;;;;;5037954;28;20060;-69
2022/11/20 05:40:55;;;;;;;8.35;5.40;;;0.60;99.90;;;;;;5055662;28;20041;-70
2022/11/20 05:43:21;;;;;;;8.75;5.88;;;0.40;99.90;;;;;;5037935;28;20124;-69
2022/11/20 05:45:54;;;;;;;8.90;5.22;;;-0.30;99.90;;;;;;5038209;28;20059;-69
2022/11/20 05:48:20;;;;;;;7.95;5.00;;;0.60;99.90;;;;;;5055773;28;20124;-70
2022/11/20 05:50:45;;;;;;;9.57;5.22;;;-0.30;99.90;;;;;;5056234;28;20133;-69
2022/11/20 05:53:11;;;;;;;9.00;5.72;;;-0.30;99.90;;;;;;5056212;28;20367;-69
2022/11/20 05:55:36;;;;;;;7.03;4.63;;;0.80;99.90;;;;;;5037781;28;20041;-69
2022/11/20 05:58:02;;;;;;;8.43;5.40;;;-0.40;99.90;;;;;;5055529;28;20481;-70
2022/11/20 06:00:28;;;;;;;8.88;5.35;;;-0.40;99.90;;;;;;5055297;28;20473;-69
2022/11/20 06:02:53;;;;;;;9.18;5.63;;;0.10;99.90;;;;;;5055214;28;20389;-69
2022/11/20 06:05:19;;;;;;;8.90;5.40;;;-0.40;99.90;;;;;;5055218;28;20390;-70
2022/11/20 06:07:44;;;;;;;9.30;5.60;;;-0.40;99.90;;;;;;5037462;28;20049;-69
2022/11/20 06:10:11;;;;;;;9.50;6.22;;;1.10;99.90;;;;;;5055142;28;20041;-69
2022/11/20 06:12:36;;;;;;;8.02;5.82;;;-0.40;99.90;;;;;;5037521;28;20056;-69
2022/11/20 06:15:03;;;;;;;10.15;5.47;;;-0.50;99.90;;;;;;5055113;28;20044;-69
2022/11/20 06:17:29;;;;;;;10.18;6.35;;;-0.50;99.90;;;;;;5055344;28;20041;-70
2022/11/20 06:19:55;;;;;;;10.45;6.25;;;-0.50;99.90;;;;;;5055237;28;20385;-69
2022/11/20 06:22:21;;;;;;;7.35;5.90;;;-0.50;99.90;;;;;;5054893;28;20401;-69
2022/11/20 06:24:47;;;;;;;8.68;5.75;;;-0.50;99.90;;;;;;5055616;28;20045;-70
2022/11/20 06:27:13;;;;;;;9.43;5.78;;;-0.60;99.90;;;;;;5054800;28;20084;-69
2022/11/20 06:29:39;;;;;;;8.32;5.70;;;0.20;99.90;;;;;;5054530;28;20041;-69
2022/11/20 06:32:04;;;;;;;9.18;5.40;;;-0.60;99.90;;;;;;5054787;28;20385;-69
2022/11/20 06:34:30;;;;;;;8.90;5.60;;;-0.60;99.90;;;;;;5054740;28;20362;-69
2022/11/20 06:36:55;;;;;;;8.38;5.28;;;-0.60;99.90;;;;;;5054542;28;20045;-69
2022/11/20 06:39:21;;;;;;;8.40;5.45;;;-0.60;99.90;;;;;;5054662;28;20044;-69
2022/11/20 06:41:47;;;;;;;10.38;6.38;;;-0.70;99.90;;;;;;5054770;28;20052;-70
2022/11/20 06:44:12;;;;;;;8.30;5.72;;;-0.60;99.90;;;;;;5054501;28;20049;-70
2022/11/20 06:46:38;;;;;;;8.95;5.50;;;-0.60;99.90;;;;;;5036891;28;20127;-70
2022/11/20 06:49:04;;;;;;;8.25;5.30;;;-0.60;99.90;;;;;;5054449;28;20040;-69
2022/11/20 06:51:29;;;;;;;8.55;5.32;;;-0.60;99.90;;;;;;5054338;28;20045;-70
2022/11/20 06:53:55;;;;;;;7.97;5.10;;;-0.60;99.90;;;;;;5054656;28;20051;-70
2022/11/20 06:56:21;;;;;;;7.63;5.13;;;-0.50;99.90;;;;;;5054298;28;20041;-70
2022/11/20 06:58:46;;;;;;;8.30;4.88;;;0.80;99.90;;;;;;5054120;28;20043;-70
2022/11/20 07:01:14;;;;;;;8.95;5.43;;;0.00;99.90;;;;;;5054390;28;20075;-69
2022/11/20 07:03:41;;;;;;;9.85;6.07;;;0.00;99.90;;;;;;5053798;28;20460;-70
2022/11/20 07:06:07;;;;;;;7.45;5.20;;;-0.50;99.90;;;;;;5054027;28;20045;-70
2022/11/20 07:08:34;;;;;;;9.07;5.43;;;-0.50;99.90;;;;;;5054053;28;20048;-70
2022/11/20 07:11:02;;;;;;;7.70;5.70;;;-0.50;99.90;;;;;;5053966;28;20052;-69
2022/11/20 07:13:29;;;;;;;8.27;5.60;;;0.20;99.90;;;;;;5053781;28;20056;-70
2022/11/20 07:15:58;;;;;;;7.80;5.35;;;-0.50;99.90;;;;;;5036143;28;20045;-70
2022/11/20 07:18:24;;;;;;;8.88;5.35;;;0.10;99.90;;;;;;5053656;28;20402;-70
2022/11/20 07:20:49;;;;;;;8.55;5.70;;;-0.50;99.90;;;;;;5053956;28;20057;-70
2022/11/20 07:23:15;;;;;;;10.98;5.97;;;-0.50;99.90;;;;;;5053457;28;20496;-70
2022/11/20 07:25:41;;;;;;;9.73;5.93;;;0.40;99.90;;;;;;5053703;28;20051;-70
2022/11/20 07:28:06;;;;;;;9.05;5.80;;;-0.50;99.90;;;;;;5035867;28;20279;-70
2022/11/20 07:30:32;;;;;;;8.95;5.28;;;-0.50;99.90;;;;;;5053604;28;20401;-70
2022/11/20 07:32:58;;;;;;;7.05;4.90;;;-0.50;99.90;;;;;;5036312;28;20355;-70
2022/11/20 07:35:24;;;;;;;7.28;5.38;;;-0.40;99.90;;;;;;5053590;28;20044;-70
2022/11/20 07:37:50;;;;;;;8.80;5.40;;;0.50;99.90;;;;;;5054230;28;20041;-70
2022/11/20 07:40:16;;;;;;;9.98;5.65;;;-0.40;99.90;;;;;;5053514;28;20441;-70
2022/11/20 07:42:53;;;;;;;8.07;5.57;;;-0.40;99.90;;;;;;5053394;28;20454;-70
2022/11/20 07:45:20;;;;;;;10.75;6.55;;;-0.40;99.90;;;;;;5053177;28;20497;-70
2022/11/20 07:47:46;;;;;;;8.10;5.90;;;-0.40;99.90;;;;;;5053182;28;20045;-71
2022/11/20 07:50:13;;;;;;;8.32;5.72;;;-0.40;99.90;;;;;;5019189;28;20541;-70
2022/11/20 07:52:39;;;;;;;7.90;5.18;;;-0.40;99.90;;;;;;5053218;28;20410;-70
2022/11/20 07:55:05;;;;;;;9.43;6.05;;;0.30;99.90;;;;;;5053301;28;20052;-70
2022/11/20 07:57:31;;;;;;;7.93;5.55;;;-0.40;99.90;;;;;;5053141;28;20045;-70
2022/11/20 07:59:56;;;;;;;10.32;6.38;;;-0.50;99.90;;;;;;5053167;28;20052;-70
2022/11/20 08:02:22;;;;;;;9.65;6.97;;;-0.50;99.90;;;;;;5053138;28;20390;-70
2022/11/20 08:04:48;;;;;;;9.38;6.53;;;-0.50;99.90;;;;;;5053062;28;20052;-65
2022/11/20 08:07:13;;;;;;;7.85;5.90;;;-0.60;99.90;;;;;;5053644;28;20072;-64
2022/11/20 08:09:39;;;;;;;9.63;6.32;;;-0.60;99.90;;;;;;5053146;28;20059;-64
2022/11/20 08:14:50;;;;;;;9.38;5.50;;;-0.60;99.90;;;;;;5052762;28;20481;-65
2022/11/20 08:17:15;;;;;;;8.50;5.90;;;-0.60;99.90;;;;;;5035211;28;20051;-65
2022/11/20 08:19:41;;;;;;;8.05;5.40;;;-0.60;99.90;;;;;;5053378;28;20124;-65
2022/11/20 08:22:07;;;;;;;8.55;5.95;;;-0.60;99.90;;;;;;5052633;28;20394;-65
2022/11/20 08:24:32;;;;;;;8.57;5.95;;;-0.60;99.90;;;;;;5053200;28;20055;-65
2022/11/20 08:26:59;;;;;;;8.50;5.40;;;-0.10;99.90;;;;;;5035056;28;20041;-65
2022/11/20 08:29:27;;;;;;;9.07;5.57;;;-0.50;99.90;;;;;;5053328;28;20056;-65
2022/11/20 08:31:52;;;;;;;9.98;6.00;;;-0.50;99.90;;;;;;5052817;28;20090;-65
2022/11/20 08:34:18;;;;;;;8.88;5.50;;;-0.50;99.90;;;;;;5052467;28;20378;-65
2022/11/20 08:36:44;;;;;;;9.38;5.60;;;-0.50;99.90;;;;;;5052356;28;20474;-65
2022/11/20 08:39:11;;;;;;;8.23;5.30;;;-0.50;99.90;;;;;;5053092;28;20091;-65
2022/11/20 08:41:37;;;;;;;8.90;6.18;;;-0.40;99.90;;;;;;5052710;28;20053;-65
2022/11/20 08:44:06;;;;;;;8.05;5.32;;;-0.40;99.90;;;;;;5018349;28;20045;-65
2022/11/20 08:46:37;;;;;;;9.13;6.20;;;-0.40;99.90;;;;;;5052238;28;20057;-65
2022/11/20 08:49:05;;;;;;;9.45;5.50;;;-0.30;99.90;;;;;;5050966;28;20377;-65
2022/11/20 08:51:32;;;;;;;7.80;5.30;;;-0.30;99.90;;;;;;5052658;28;20088;-65
2022/11/20 08:53:57;;;;;;;8.75;5.40;;;0.30;99.90;;;;;;5054786;28;20091;-71
2022/11/20 08:56:23;;;;;;;8.85;5.68;;;0.70;99.90;;;;;;5055975;28;20458;-71
2022/11/20 08:58:50;;;;;;;7.88;5.55;;;-0.20;99.90;;;;;;5056049;28;20049;-72
2022/11/20 09:01:15;;;;;;;9.43;5.35;;;-0.20;99.90;;;;;;5056191;28;20045;-74
2022/11/20 09:03:41;;;;;;;8.93;5.50;;;-0.20;99.90;;;;;;5038229;28;20071;-72
2022/11/20 09:06:07;;;;;;;8.98;6.13;;;-0.20;99.90;;;;;;5056042;28;20057;-71
2022/11/20 09:08:35;;;;;;;9.70;6.68;;;1.30;99.90;;;;;;5038678;28;20053;-71
2022/11/20 09:11:00;;;;;;;8.73;5.40;;;-0.10;99.90;;;;;;5056031;28;20044;-72
2022/11/20 09:13:27;;;;;;;7.88;5.80;;;1.50;99.90;;;;;;5056575;28;20516;-71
2022/11/20 09:16:01;;;;;;;8.10;5.43;;;0.30;99.90;;;;;;5056048;28;20053;-71
2022/11/20 09:18:28;;;;;;;9.40;5.68;;;-0.10;99.90;;;;;;5056125;28;20049;-72
2022/11/20 09:20:58;;;;;;;9.75;5.25;;;1.30;99.90;;;;;;5056073;28;20375;-73
2022/11/20 09:23:25;;;;;;;6.97;5.05;;;0.40;99.90;;;;;;5021977;28;20439;-71
2022/11/20 09:25:50;;;;;;;9.13;5.40;;;0.00;99.90;;;;;;5055940;28;20045;-70
2022/11/20 09:28:18;;;;;;;14.18;5.28;;;1.80;99.90;;;;;;5055869;28;20128;-71
2022/11/20 09:30:44;;;;;;;9.00;5.28;;;1.00;99.90;;;;;;5038768;28;20052;-72
2022/11/20 09:33:10;;;;;;;7.70;5.20;;;0.10;99.90;;;;;;5037937;28;20094;-74
2022/11/20 09:35:35;;;;;;;9.35;5.50;;;1.60;99.90;;;;;;5056047;28;20044;-72
2022/11/20 09:38:07;;;;;;;8.63;5.78;;;0.10;99.90;;;;;;5037560;28;20044;-71
2022/11/20 09:40:35;;;;;;;8.70;5.30;;;0.20;99.90;;;;;;5037771;28;20076;-70
2022/11/20 09:43:07;;;;;;;8.18;5.85;;;0.20;99.90;;;;;;5038545;28;20080;-72
2022/11/20 09:45:46;;;;;;;8.07;5.35;;;0.20;99.90;;;;;;5038397;28;20395;-72
2022/11/20 09:48:33;;;;;;;7.40;5.15;;;0.30;99.90;;;;;;5055060;28;20421;-72
2022/11/20 09:51:04;;;;;;;;;;;0.40;99.90;;;;;;5055937;28;20136;-72
2022/11/20 09:53:50;;;;;;;8.02;4.93;;;0.40;99.90;;;;;;5055580;28;19996;-71
2022/11/20 09:56:18;;;;;;;7.43;4.88;;;2.00;99.90;;;;;;5054960;28;20512;-72
2022/11/20 09:58:57;;;;;;;6.53;4.85;;;0.40;99.90;;;;;;5055159;28;20049;-72
2022/11/20 10:01:29;;;;;;;7.88;4.85;;;1.20;99.90;;;;;;5055366;28;20053;-72
2022/11/20 10:04:02;;;;;;;8.25;5.53;;;1.40;99.90;;;;;;5055714;28;20370;-72
2022/11/20 10:06:31;;;;;;;9.02;5.18;;;0.50;99.90;;;;;;5055075;28;20045;-72
2022/11/20 10:09:26;;;;;;;7.93;5.28;;;0.50;99.90;;;;;;5055095;28;20098;-72
2022/11/20 10:11:55;;;;;;;10.10;5.65;;;0.60;99.90;;;;;;5037926;28;20080;-72
2022/11/20 10:14:39;;;;;;;7.30;5.10;;;2.10;99.90;;;;;;5054927;28;20080;-72
2022/11/20 10:17:40;;;;;;;8.82;5.80;;;0.70;99.90;;;;;;5054689;28;20486;-74
2022/11/20 10:20:27;;;;;;;9.15;5.28;;;0.80;99.90;;;;;;5055420;28;20071;-73
2022/11/20 10:23:30;;;;;;;7.40;5.40;;;0.90;99.90;;;;;;5055126;28;20156;-73
2022/11/20 10:26:42;;;;;;;7.63;5.07;;;1.00;99.90;;;;;;5054821;28;20049;-74
2022/11/20 10:29:15;;;;;;;7.55;4.85;;;1.20;99.90;;;;;;5036907;28;20149;-73
2022/11/20 10:31:55;;;;;;;8.27;4.93;;;1.30;99.90;;;;;;5055063;28;20131;-72
2022/11/20 10:34:47;;;;;;;8.35;5.20;;;2.20;99.90;;;;;;5055408;28;20049;-73
2022/11/20 10:37:20;;;;;;;7.90;4.85;;;1.50;99.90;;;;;;5055264;28;20503;-73
2022/11/20 10:40:08;;;;;;;7.22;4.72;;;2.10;99.90;;;;;;5036974;28;20041;-72
2022/11/20 10:42:39;;;;;;;7.50;4.82;;;1.80;99.90;;;;;;5054814;28;20479;-73
2022/11/20 10:45:17;;;;;;;6.47;4.22;;;2.20;99.90;;;;;;5054311;28;20056;-72
2022/11/20 10:47:43;;;;;;;6.80;4.57;;;2.20;99.90;;;;;;5054350;28;20052;-72
2022/11/20 10:50:14;;;;;;;6.28;4.55;;;3.30;99.90;;;;;;5036836;28;20048;-72
2022/11/20 10:52:57;;;;;;;7.60;5.25;;;2.30;99.90;;;;;;5037025;28;20350;-71
2022/11/20 10:55:29;;;;;;;6.43;4.57;;;2.40;99.90;;;;;;5054332;28;20072;-73
2022/11/20 10:58:12;;;;;;;7.28;4.70;;;2.40;99.90;;;;;;5036719;28;20477;-73
2022/11/20 11:00:38;;;;;;;8.27;4.95;;;2.50;99.90;;;;;;5054845;28;20052;-72
2022/11/20 11:03:20;;;;;;;7.38;5.20;;;3.60;99.90;;;;;;5054610;28;20427;-75
2022/11/20 11:06:10;;;;;;;6.82;4.75;;;2.60;99.90;;;;;;5037299;28;20049;-73
2022/11/20 11:08:38;;;;;;;7.97;4.40;;;2.70;99.90;;;;;;5054578;28;20041;-73
2022/11/20 11:11:33;;;;;;;4.97;3.50;;;2.70;99.90;;;;;;5036223;28;20053;-72
2022/11/20 11:14:13;;;;;;;5.80;3.70;;;2.90;99.90;;;;;;5036550;28;20135;-72
2022/11/20 11:16:53;;;;;;;6.57;3.95;;;2.70;99.90;;;;;;5052934;28;20048;-74
2022/11/20 11:19:19;;;;;;;5.60;4.05;;;3.60;99.90;;;;;;5053638;28;20103;-72
2022/11/20 11:21:56;;;;;;;5.28;4.00;;;3.30;99.90;;;;;;5054675;28;20096;-72
2022/11/20 11:24:26;;;;;;;6.18;4.15;;;2.60;99.90;;;;;;5053676;28;20057;-73
2022/11/20 11:26:59;;;;;;;6.35;4.28;;;2.60;99.90;;;;;;5053981;28;20375;-73
2022/11/20 11:29:29;;;;;;;7.55;5.07;;;3.00;99.90;;;;;;5053652;28;20088;-73
2022/11/20 11:32:11;;;;;;;7.13;4.90;;;2.50;99.90;;;;;;5035420;28;20045;-70
2022/11/20 11:34:37;;;;;;;7.97;5.22;;;2.50;99.90;;;;;;5036003;28;20049;-71
2022/11/20 11:37:10;;;;;;;8.45;5.05;;;2.50;99.90;;;;;;5036030;28;20103;-71
2022/11/20 11:39:40;;;;;;;8.05;5.35;;;2.50;99.90;;;;;;5053428;28;20052;-71
2022/11/20 11:42:07;;;;;;;8.35;5.60;;;2.50;99.90;;;;;;5035532;28;20091;-71
2022/11/20 11:47:25;;;;;;;8.27;5.60;;;2.50;99.90;;;;;;5036433;28;20068;-71
2022/11/20 11:50:08;;;;;;;10.85;7.05;;;3.40;99.90;;;;;;5053194;28;20049;-71
2022/11/20 11:52:57;;;;;;;7.72;5.07;;;2.50;99.90;;;;;;5035769;28;20052;-69
2022/11/20 11:55:49;;;;;;;8.13;5.13;;;2.50;99.90;;;;;;5042377;28;20501;-71
2022/11/20 11:58:34;;;;;;;7.57;4.80;;;2.50;99.90;;;;;;5054016;28;20040;-71
2022/11/20 12:01:34;;;;;;;7.10;4.88;;;3.70;99.90;;;;;;5052949;28;20508;-72
2022/11/20 12:04:33;;;;;;;7.75;5.50;;;2.50;99.90;;;;;;5036367;28;20053;-71
2022/11/20 12:07:05;;;;;;;11.10;8.43;;;2.50;99.90;;;;;;5053034;28;20118;-71
2022/11/20 12:09:38;;;;;;;8.98;5.82;;;3.50;99.90;;;;;;5053666;28;20389;-71
2022/11/20 12:12:20;;;;;;;9.82;5.55;;;2.60;99.90;;;;;;5053115;28;20049;-71
2022/11/20 12:14:50;;;;;;;8.57;4.95;;;2.70;99.90;;;;;;5053135;28;20045;-71
2022/11/20 12:17:17;;;;;;;6.65;4.20;;;2.80;99.90;;;;;;5053116;28;20041;-70
2022/11/20 12:19:43;;;;;;;5.30;3.88;;;2.80;99.90;;;;;;5052968;28;20088;-71
2022/11/20 12:22:54;;;;;;;5.93;3.72;;;2.80;99.90;;;;;;5034939;28;20057;-71
2022/11/20 12:25:30;;;;;;;5.28;3.60;;;2.80;99.90;;;;;;5021981;28;20057;-71
2022/11/20 12:28:21;;;;;;;6.13;3.92;;;2.80;99.90;;;;;;5054432;28;20099;-70
2022/11/20 12:31:17;;;;;;;5.72;4.00;;;2.90;99.90;;;;;;5057691;28;20049;-71
2022/11/20 12:33:46;;;;;;;5.45;3.63;;;3.00;99.90;;;;;;5055988;28;20053;-71
2022/11/20 12:36:27;;;;;;;5.55;3.60;;;3.00;99.90;;;;;;5056857;28;20074;-70
2022/11/20 12:39:08;;;;;;;5.55;3.70;;;3.00;99.90;;;;;;5056803;28;20045;-71
2022/11/20 12:45:10;;;;;;;4.95;3.63;;;3.10;99.90;;;;;;5056814;28;20096;-71
2022/11/20 12:48:12;;;;;;;6.47;4.20;;;3.20;99.90;;;;;;5057494;28;20063;-69
2022/11/20 12:50:44;;;;;;;5.13;3.70;;;3.20;99.90;;;;;;5056618;28;20088;-70
2022/11/20 12:53:39;;;;;;;5.32;3.83;;;3.00;99.90;;;;;;5056700;28;20049;-71
2022/11/20 12:56:11;;;;;;;6.90;4.40;;;2.90;99.90;;;;;;5039224;28;20556;-70
2022/11/20 12:58:44;;;;;;;6.72;4.25;;;2.80;99.90;;;;;;5056396;28;20040;-70
2022/11/20 13:01:42;;;;;;;5.70;3.80;;;2.70;99.90;;;;;;5057387;28;20107;-70
2022/11/20 13:04:20;;;;;;;5.75;4.13;;;2.70;99.90;;;;;;5038526;28;20110;-70
2022/11/20 13:06:46;;;;;;;6.72;4.68;;;2.80;99.90;;;;;;5038039;28;20080;-71
2022/11/20 13:09:16;;;;;;;5.32;3.78;;;2.90;99.90;;;;;;5022118;28;20053;-70
2022/11/20 13:12:05;;;;;;;5.15;3.55;;;4.10;99.90;;;;;;5056336;28;20056;-70
2022/11/20 13:14:37;;;;;;;5.93;3.92;;;3.10;99.90;;;;;;5056209;28;20044;-70
2022/11/20 13:17:21;;;;;;;6.53;3.65;;;3.30;99.90;;;;;;5056212;28;20045;-70